KAUW

Wausau Downtown Airport

Wausau, Wisconsin, USA
METAR KAUW 251554Z AUTO 21010KT 10SM SCT090 BKN120 25/12 A2977 RMK AO2 PK WND 25031/1526 RAB27E39 PRESFR SLP078 P0000 T02500117
Observed Flight Rules
May-25 @ 15:54 UTC (12 hours ago) Visual Flight Rules
Wind Visibility Clouds
210° at 10 knots 10 miles
  • Scattered at 9,000' AGL
  • Broken at 12,000' AGL
Temperatures Readings Precipitation
Current 25°C / 77°F
Dewpoint 12°C / 54°F
Humidity 44%
Altimeter 29.77" Hg
Pressure 1007.8 hPa
Elevation 362
Current Rain 0.005
METAR KAUW 251554Z AUTO 21010KT 10SM SCT090 BKN120 25/12 A2977 RMK AO2 PK WND 25031/1526 RAB27E39 PRESFR SLP078 P0000 T02500117
Observed Flight Rules
May-25 @ 15:54 UTC
(12 hours ago)
VFR
Wind Visibility
210° at 10 knots 10 miles
Clouds
  • Scattered at 9,000' AGL
  • Broken at 12,000' AGL
Temperature Dewpoint
25°C / 77°F 12°C / 54°F
Humidity Altimeter Pressure
44% 29.77" Hg 1007.8 hPa
Current Rain
0.005